YM Vancouver — C4ZL2 — position and weather

sailwx.info

Track history (hours):
 
Tides and Currents Weather Stations Pressure Air Temp Water Temp Dewpoint Dewpoint Depression Visibility Wind Speed Wind Dir Waves Ship Positions

YM Vancouver

Last reported at 2018-Jun-14 22:17 UTC. Time now 2018-Jun-19 00:59 UTC.
Position N 31°05' E 122°30'.

Length 260 m; draft 8 m.

Type: Cargo ship. MMSI: 212714000.

Date/timePositionNaut miles runAvg speedWind from/ knotsBaromVisibWave heightAir tempDewpointWater temp
2018-Jun-14 22:17N 31°05' E 122°30'3 9.1
2018-Jun-14 21:54N 31°06' E 122°26'614.2
2018-Jun-14 21:28N 31°06' E 122°19'714.4
2018-Jun-14 20:59N 31°10' E 122°12'714.7
2018-Jun-14 20:30N 31°14' E 122°05'815.0
2018-Jun-14 19:57N 31°15' E 121°55'714.7
2018-Jun-14 19:30N 31°17' E 121°48'3 0.2
2018-Jun-14 05:01N 31°19' E 121°44'2 9.8
2018-Jun-14 04:50N 31°18' E 121°46'510.0
2018-Jun-14 04:19N 31°16' E 121°52'310.0
2018-Jun-14 04:00N 31°16' E 121°56'510.1
2018-Jun-14 03:29N 31°15' E 122°02'5 9.5
2018-Jun-14 02:58N 31°13' E 122°07'711.3
2018-Jun-14 02:20N 31°09' E 122°14'612.1
2018-Jun-14 01:51N 31°06' E 122°20'16 2.7
2018-Jun-13 20:06N 31°09' E 122°38'0 0.0
2018-Jun-13 03:21N 31°09' E 122°38'0 0.1
2018-Jun-13 02:39N 31°09' E 122°38'0 0.0
2018-Jun-13 01:42N 31°09' E 122°38'0 0.2
2018-Jun-13 01:27N 31°09' E 122°38'0 0.1
2018-Jun-13 00:51N 31°09' E 122°38'0 0.0
2018-Jun-13 00:27N 31°09' E 122°38'0 0.1
2018-Jun-12 23:45N 31°09' E 122°38'0 0.2
2018-Jun-12 23:24N 31°09' E 122°38'0 0.1
2018-Jun-12 22:57N 31°09' E 122°38'0 0.1
2018-Jun-12 22:24N 31°09' E 122°38'0 0.1
2018-Jun-12 21:39N 31°09' E 122°38'0 0.0
2018-Jun-12 21:30N 31°09' E 122°38'0 0.1
2018-Jun-12 19:32N 31°09' E 122°38'0 3.7
2018-Jun-12 19:26N 31°09' E 122°38'3 5.9
2018-Jun-12 19:00N 31°07' E 122°40'5 8.2
2018-Jun-12 18:26N 31°06' E 122°46'4 8.7
2018-Jun-12 18:00N 31°03' E 122°49'611.3
2018-Jun-12 17:30N 30°60' E 122°54'611.6
2018-Jun-12 17:00N 30°56' E 122°59'611.9
2018-Jun-12 16:29N 30°53' E 123°05'612.2
2018-Jun-12 16:00N 30°49' E 123°11'612.2
2018-Jun-12 15:29N 30°46' E 123°18'712.9
2018-Jun-12 14:55N 30°39' E 123°18'713.4
2018-Jun-12 14:25N 30°33' E 123°18'1013.7
2018-Jun-12 13:40N 30°22' E 123°18'413.9
2018-Jun-12 13:24N 30°19' E 123°18'613.7
2018-Jun-12 12:59N 30°13' E 123°18'713.2
2018-Jun-12 12:25N 30°05' E 123°18'46712.3
2018-Jun-10 22:30N 22°53' E 120°00'612.2
2018-Jun-10 22:00N 22°48' E 120°04'611.9
2018-Jun-10 21:30N 22°43' E 120°07'611.5
2018-Jun-10 21:01N 22°38' E 120°11'510.9
2018-Jun-10 20:30N 22°33' E 120°13'5 9.8
2018-Jun-10 20:00N 22°33' E 120°19'1 0.8
2018-Jun-10 19:16N 22°33' E 120°19'0 0.0
2018-Jun-10 18:58N 22°33' E 120°19'0 0.0
2018-Jun-10 18:22N 22°33' E 120°19'0 0.0
2018-Jun-10 17:58N 22°33' E 120°19'0 0.0
2018-Jun-10 14:46N 22°33' E 120°19'0 0.0
2018-Jun-10 14:28N 22°33' E 120°19'3 3.6
2018-Jun-10 13:30N 22°32' E 120°16'1 1.6
2018-Jun-10 13:00N 22°32' E 120°15'3 5.6
2018-Jun-10 12:30N 22°31' E 120°12'0 0.9
2018-Jun-10 12:00N 22°31' E 120°12'2 4.7
2018-Jun-10 11:30N 22°29' E 120°12'611.8
2018-Jun-10 11:00N 22°23' E 120°12'612.2
2018-Jun-10 10:29N 22°17' E 120°11'712.1
2018-Jun-10 09:55N 22°10' E 120°10'  
2018-Jun-05 01:22S 06°46' E 112°45'612.8
2018-Jun-05 00:54S 06°52' E 112°45'714.4
2018-Jun-05 00:27S 06°58' E 112°42'715.0
2018-Jun-04 23:58S 07°05' E 112°39'  
Track history (hours):
 
Tides and Currents Weather Stations Pressure Air Temp Water Temp Dewpoint Dewpoint Depression Visibility Wind Speed Wind Dir Waves Ship Positions

YM Vancouver

Last reported at 2018-Jun-14 22:17 UTC. Time now 2018-Jun-19 00:59 UTC.
Position N 31°05' E 122°30'.

Length 260 m; draft 8 m.

Type: Cargo ship. MMSI: 212714000.

Date/timePositionNaut miles runAvg speedWind from/ knotsBaromVisibWave heightAir tempDewpointWater temp
2018-Jun-14 22:17N 31°05' E 122°30'3 9.1
2018-Jun-14 21:54N 31°06' E 122°26'614.2
2018-Jun-14 21:28N 31°06' E 122°19'714.4
2018-Jun-14 20:59N 31°10' E 122°12'714.7
2018-Jun-14 20:30N 31°14' E 122°05'815.0
2018-Jun-14 19:57N 31°15' E 121°55'714.7
2018-Jun-14 19:30N 31°17' E 121°48'3 0.2
2018-Jun-14 05:01N 31°19' E 121°44'2 9.8
2018-Jun-14 04:50N 31°18' E 121°46'510.0
2018-Jun-14 04:19N 31°16' E 121°52'310.0
2018-Jun-14 04:00N 31°16' E 121°56'510.1
2018-Jun-14 03:29N 31°15' E 122°02'5 9.5
2018-Jun-14 02:58N 31°13' E 122°07'711.3
2018-Jun-14 02:20N 31°09' E 122°14'612.1
2018-Jun-14 01:51N 31°06' E 122°20'16 2.7
2018-Jun-13 20:06N 31°09' E 122°38'0 0.0
2018-Jun-13 03:21N 31°09' E 122°38'0 0.1
2018-Jun-13 02:39N 31°09' E 122°38'0 0.0
2018-Jun-13 01:42N 31°09' E 122°38'0 0.2
2018-Jun-13 01:27N 31°09' E 122°38'0 0.1
2018-Jun-13 00:51N 31°09' E 122°38'0 0.0
2018-Jun-13 00:27N 31°09' E 122°38'0 0.1
2018-Jun-12 23:45N 31°09' E 122°38'0 0.2
2018-Jun-12 23:24N 31°09' E 122°38'0 0.1
2018-Jun-12 22:57N 31°09' E 122°38'0 0.1
2018-Jun-12 22:24N 31°09' E 122°38'0 0.1
2018-Jun-12 21:39N 31°09' E 122°38'0 0.0
2018-Jun-12 21:30N 31°09' E 122°38'0 0.1
2018-Jun-12 19:32N 31°09' E 122°38'0 3.7
2018-Jun-12 19:26N 31°09' E 122°38'3 5.9
2018-Jun-12 19:00N 31°07' E 122°40'5 8.2
2018-Jun-12 18:26N 31°06' E 122°46'4 8.7
2018-Jun-12 18:00N 31°03' E 122°49'611.3
2018-Jun-12 17:30N 30°60' E 122°54'611.6
2018-Jun-12 17:00N 30°56' E 122°59'611.9
2018-Jun-12 16:29N 30°53' E 123°05'612.2
2018-Jun-12 16:00N 30°49' E 123°11'612.2
2018-Jun-12 15:29N 30°46' E 123°18'712.9
2018-Jun-12 14:55N 30°39' E 123°18'713.4
2018-Jun-12 14:25N 30°33' E 123°18'1013.7
2018-Jun-12 13:40N 30°22' E 123°18'413.9
2018-Jun-12 13:24N 30°19' E 123°18'613.7
2018-Jun-12 12:59N 30°13' E 123°18'713.2
2018-Jun-12 12:25N 30°05' E 123°18'46712.3
2018-Jun-10 22:30N 22°53' E 120°00'612.2
2018-Jun-10 22:00N 22°48' E 120°04'611.9
2018-Jun-10 21:30N 22°43' E 120°07'611.5
2018-Jun-10 21:01N 22°38' E 120°11'510.9
2018-Jun-10 20:30N 22°33' E 120°13'5 9.8
2018-Jun-10 20:00N 22°33' E 120°19'1 0.8
2018-Jun-10 19:16N 22°33' E 120°19'0 0.0
2018-Jun-10 18:58N 22°33' E 120°19'0 0.0
2018-Jun-10 18:22N 22°33' E 120°19'0 0.0
2018-Jun-10 17:58N 22°33' E 120°19'0 0.0
2018-Jun-10 14:46N 22°33' E 120°19'0 0.0
2018-Jun-10 14:28N 22°33' E 120°19'3 3.6
2018-Jun-10 13:30N 22°32' E 120°16'1 1.6
2018-Jun-10 13:00N 22°32' E 120°15'3 5.6
2018-Jun-10 12:30N 22°31' E 120°12'0 0.9
2018-Jun-10 12:00N 22°31' E 120°12'2 4.7
2018-Jun-10 11:30N 22°29' E 120°12'611.8
2018-Jun-10 11:00N 22°23' E 120°12'612.2
2018-Jun-10 10:29N 22°17' E 120°11'712.1
2018-Jun-10 09:55N 22°10' E 120°10'  
2018-Jun-05 01:22S 06°46' E 112°45'612.8
2018-Jun-05 00:54S 06°52' E 112°45'714.4
2018-Jun-05 00:27S 06°58' E 112°42'715.0
2018-Jun-04 23:58S 07°05' E 112°39'  

Dump ship's entire track history